Cambridge, Minnesota
Current Conditions -  °F | °C
As of 10:15 AM on Wednesday 28 Jan 2015 (Local Time) from KCBG Reporting Station
Haze Haze  
Wind Chill: -6°   Ceiling: 700
Heat Index: -2°   Visibility: 5mi
Dew Point: -6°   Wind: 8mph
Humidity: 74%   Direction: 140°SE
Pressure: 29.93"   Gusts: 17mph
Location:  45.57°N, 93.22°W
Report Text: KCBG 281615Z AUTO 14007G15KT 5SM HZ OVC007 M02/M06 A2993 RMK AO2
Loading
Personal Weather Stations






























Interactive Weather Map New forecast layout! Learn more

10-Day Weather Forecast

Advertisements
Track Severe Weather on mobile